Portada
METAR-TAF:

METAR-TAF

Aeroports :

Beirut, Líban

latitud: 33-49N, longitud: 035-29E, altitud: 29 m

METAR: manca

Hora: 08:52 (05:52 UTC)

Pronòstic

L'informe es va fer fa 1 hora i 52 minuts, a les 04:00 UTC
Pronòstic vàlid del 22 a les 06 UTC al 23 a les 12 UTC
Vent 12 kt del Oest
Visibilitat: 8000 m
Núvols disperses a una alçada de 2600 ft
Probabilitat 40% :
Temporalment
l' 22 a les 06 UTC al 22 a les 10 UTC
Visibilitat: 5000 m
boirina
Evolucionant progressivament
l' 22 a les 20 UTC al 22 a les 22 UTC
Vent 4 kt del Sud/Sud-Est
Visibilitat 10 km o més
Escasses núvols a una alçada de 2600 ft
Evolucionant progressivament
l' 23 a les 06 UTC al 23 a les 08 UTC
Vent 10 kt del Oest/Sud-Oest
Visibilitat: 8000 m
Núvols disperses a una alçada de 2600 ft

TAF: OLBA 220400Z 2206/2312 26012KT 8000 SCT026 PROB40 TEMPO 2206/2210 5000 BR BECMG 2220/2222 15004KT 9999 FEW026 BECMG 2306/2308 25010KT 8000 SCT026

Observacions i pronòstics meteorològics de més de 4000 aeroports (METAR i TAF).

Les estacions disponibles són els punts grocs i vermells al mapa.

Posi el ratolí al punt desitjat per veure el nom de l'estació.

Feu clic per veure les observacions i els pronòstics meteorològics.

Per canviar el mapa: feu clic els botons verds amb una creu de color negre per apropar; al botó verd amb un guió per allunyar la imatge; o en les fletxes verdes per a mapes adjacents.


METAR-TAF: